createdAt,value
2018-07-24T00:01:45.395Z,18.21
2018-07-24T00:04:17.446Z,18.19
2018-07-24T00:06:49.422Z,18.18
2018-07-24T00:09:21.398Z,18.17
2018-07-24T00:11:53.394Z,18.08
2018-07-24T00:14:25.376Z,18.06
2018-07-24T00:16:57.322Z,17.98
2018-07-24T00:19:29.344Z,17.94
2018-07-24T00:22:01.304Z,17.87
2018-07-24T00:24:33.310Z,17.72
2018-07-24T00:27:05.290Z,17.72
2018-07-24T00:29:37.267Z,17.84
2018-07-24T00:32:09.261Z,17.79
2018-07-24T00:34:41.205Z,17.70
2018-07-24T00:37:13.154Z,17.62
2018-07-24T00:39:45.112Z,17.50
2018-07-24T00:42:17.099Z,17.53
2018-07-24T00:44:49.075Z,17.45
2018-07-24T00:47:21.050Z,17.43
2018-07-24T00:49:53.032Z,17.41
2018-07-24T00:52:25.011Z,17.31
2018-07-24T00:54:56.982Z,17.19
2018-07-24T00:57:28.950Z,17.19
2018-07-24T01:00:00.915Z,17.08
2018-07-24T01:02:32.876Z,16.98
2018-07-24T01:05:04.864Z,16.86
2018-07-24T01:07:38.268Z,16.81
2018-07-24T01:10:10.730Z,16.75
2018-07-24T01:12:42.691Z,16.80
2018-07-24T01:15:14.655Z,16.85
2018-07-24T01:17:46.650Z,16.77
2018-07-24T01:20:18.615Z,16.70
2018-07-24T01:22:50.585Z,16.63
2018-07-24T01:25:22.534Z,16.50
2018-07-24T01:27:54.530Z,16.42
2018-07-24T01:30:26.479Z,16.38
2018-07-24T01:32:58.422Z,16.47
2018-07-24T01:35:30.379Z,16.54
2018-07-24T01:38:02.335Z,16.51
2018-07-24T01:40:34.282Z,16.57
2018-07-24T01:43:06.295Z,16.54
2018-07-24T01:45:38.285Z,16.57
2018-07-24T01:48:10.243Z,16.55
2018-07-24T01:50:42.191Z,16.54
2018-07-24T01:53:14.130Z,16.54
2018-07-24T01:55:46.072Z,16.43
2018-07-24T01:58:18.008Z,16.31
2018-07-24T02:00:49.958Z,16.21
2018-07-24T02:03:21.940Z,16.12
2018-07-24T02:05:53.938Z,16.07
2018-07-24T02:08:25.870Z,16.05
2018-07-24T02:10:57.860Z,16.04
2018-07-24T02:13:29.850Z,15.97
2018-07-24T02:16:01.845Z,15.94
2018-07-24T02:18:33.778Z,15.93
2018-07-24T02:21:05.976Z,15.91
2018-07-24T02:23:37.914Z,15.90
2018-07-24T02:26:09.884Z,15.94
2018-07-24T02:28:41.832Z,15.93
2018-07-24T02:31:13.784Z,15.89
2018-07-24T02:33:45.739Z,15.90
2018-07-24T02:36:17.774Z,15.86
2018-07-24T02:38:49.732Z,15.78
2018-07-24T02:41:21.679Z,15.69
2018-07-24T02:43:53.620Z,15.67
2018-07-24T02:46:25.581Z,15.62
2018-07-24T02:48:57.568Z,15.63
2018-07-24T02:51:29.632Z,15.63
2018-07-24T02:54:01.572Z,15.60
2018-07-24T02:56:33.531Z,15.60
2018-07-24T02:59:05.868Z,15.55
2018-07-24T03:01:38.079Z,15.51
2018-07-24T03:04:10.039Z,15.58
2018-07-24T03:06:41.982Z,15.62
2018-07-24T03:09:13.934Z,15.69
2018-07-24T03:11:45.954Z,15.65
2018-07-24T03:14:17.926Z,15.57
2018-07-24T03:16:49.892Z,15.54
2018-07-24T03:19:21.839Z,15.54
2018-07-24T03:21:53.830Z,15.59
2018-07-24T03:24:25.795Z,15.72
2018-07-24T03:26:57.814Z,15.87
2018-07-24T03:29:29.782Z,15.87
2018-07-24T03:32:01.823Z,15.83
2018-07-24T03:34:33.797Z,15.79
2018-07-24T03:37:05.759Z,15.68
2018-07-24T03:39:37.742Z,15.72
2018-07-24T03:42:09.686Z,15.69
2018-07-24T03:44:41.659Z,15.79
2018-07-24T03:47:13.620Z,15.73
2018-07-24T03:49:45.592Z,15.78
2018-07-24T03:52:17.569Z,15.82
2018-07-24T03:54:49.544Z,15.78
2018-07-24T03:57:21.531Z,15.84
2018-07-24T03:59:53.500Z,15.82
2018-07-24T04:02:25.550Z,15.84
2018-07-24T04:04:57.487Z,15.84
2018-07-24T04:07:29.463Z,15.81
2018-07-24T04:10:01.456Z,15.81
2018-07-24T04:12:33.424Z,15.86
2018-07-24T04:15:05.469Z,15.98
2018-07-24T04:17:37.414Z,16.20
2018-07-24T04:20:09.403Z,16.41
2018-07-24T04:22:41.370Z,16.55
2018-07-24T04:25:13.343Z,16.57
2018-07-24T04:27:45.293Z,16.53
2018-07-24T04:30:17.270Z,16.62
2018-07-24T04:32:49.293Z,16.67
2018-07-24T04:35:21.215Z,16.78
2018-07-24T04:37:53.163Z,16.76
2018-07-24T04:40:25.127Z,16.84
2018-07-24T04:42:57.074Z,16.90
2018-07-24T04:45:29.021Z,17.11
2018-07-24T04:48:00.974Z,17.08
2018-07-24T04:50:32.949Z,17.17
2018-07-24T04:53:05.323Z,17.20
2018-07-24T04:55:37.295Z,17.12
2018-07-24T04:58:09.271Z,17.30
2018-07-24T05:00:41.227Z,17.30
2018-07-24T05:03:13.258Z,17.30
2018-07-24T05:05:45.244Z,17.32
2018-07-24T05:08:17.268Z,17.37
2018-07-24T05:10:49.226Z,17.53
2018-07-24T05:13:21.208Z,17.64
2018-07-24T05:15:53.150Z,17.64
2018-07-24T05:18:25.110Z,17.63
2018-07-24T05:20:57.079Z,17.73
2018-07-24T05:23:29.114Z,17.82
2018-07-24T05:26:01.065Z,17.86
2018-07-24T05:28:33.045Z,17.80
2018-07-24T05:31:05.016Z,17.98
2018-07-24T05:33:36.960Z,18.11
2018-07-24T05:36:08.944Z,18.18
2018-07-24T05:38:40.951Z,18.34
2018-07-24T05:41:12.938Z,18.35
2018-07-24T05:43:44.904Z,18.50
2018-07-24T05:46:17.145Z,18.57
2018-07-24T05:48:49.155Z,18.80
2018-07-24T05:51:21.086Z,18.83
2018-07-24T05:53:53.054Z,18.83
2018-07-24T05:56:31.818Z,18.95
2018-07-24T05:59:03.780Z,19.04
2018-07-24T06:01:35.758Z,18.84
2018-07-24T06:04:07.725Z,19.01
2018-07-24T06:06:39.718Z,19.04
2018-07-24T06:09:11.676Z,19.18
2018-07-24T06:11:43.674Z,19.20
2018-07-24T06:14:15.665Z,19.14
2018-07-24T06:19:26.376Z,19.35
2018-07-24T06:21:58.406Z,19.30
2018-07-24T06:24:30.398Z,19.74
2018-07-24T06:27:02.371Z,19.90
2018-07-24T06:29:34.442Z,20.08
2018-07-24T06:32:06.482Z,20.26
2018-07-24T06:34:38.447Z,20.52
2018-07-24T06:37:10.449Z,20.44
2018-07-24T06:39:42.478Z,20.74
2018-07-24T06:42:14.390Z,20.57
2018-07-24T06:44:46.386Z,20.73
2018-07-24T06:47:18.364Z,20.48
2018-07-24T06:49:50.372Z,20.63
2018-07-24T06:52:22.371Z,21.16
2018-07-24T06:54:54.368Z,21.55
2018-07-24T06:57:26.396Z,21.76
2018-07-24T06:59:58.375Z,21.26
2018-07-24T07:02:30.392Z,21.83
2018-07-24T07:05:02.536Z,22.26
2018-07-24T07:07:34.561Z,22.80
2018-07-24T07:10:06.574Z,23.04
2018-07-24T07:12:38.627Z,23.54
2018-07-24T07:15:10.603Z,23.23
2018-07-24T07:17:42.604Z,22.84
2018-07-24T07:20:14.595Z,22.95
2018-07-24T07:22:46.591Z,23.52
2018-07-24T07:25:18.593Z,24.00
2018-07-24T07:27:50.558Z,23.62
2018-07-24T07:30:22.596Z,25.38
2018-07-24T07:32:54.579Z,26.40
2018-07-24T07:35:26.547Z,28.32
2018-07-24T07:37:58.545Z,28.11
2018-07-24T07:40:30.532Z,29.03
2018-07-24T07:43:02.527Z,28.68
2018-07-24T07:45:34.585Z,29.06
2018-07-24T07:48:06.562Z,29.32
2018-07-24T07:50:38.559Z,30.05
2018-07-24T07:53:10.548Z,31.48
2018-07-24T07:55:42.542Z,30.94
2018-07-24T07:58:14.534Z,31.20
2018-07-24T08:00:46.515Z,32.03
2018-07-24T08:03:18.508Z,31.42
2018-07-24T08:05:50.487Z,31.39
2018-07-24T08:08:22.450Z,31.43
2018-07-24T08:10:54.470Z,31.12
2018-07-24T08:13:26.446Z,31.27
2018-07-24T08:15:58.472Z,31.12
2018-07-24T08:18:30.466Z,32.70
2018-07-24T08:21:02.442Z,32.51
2018-07-24T08:23:34.447Z,32.81
2018-07-24T08:26:06.466Z,32.20
2018-07-24T08:28:38.492Z,32.73
2018-07-24T08:31:10.494Z,32.32
2018-07-24T08:33:42.537Z,32.31
2018-07-24T08:36:14.965Z,32.34
2018-07-24T08:38:46.930Z,32.53
2018-07-24T08:41:18.987Z,32.96
2018-07-24T08:43:50.972Z,32.72
2018-07-24T08:46:23.055Z,34.45
2018-07-24T08:48:55.030Z,35.02
2018-07-24T08:51:27.053Z,34.27
2018-07-24T08:53:59.137Z,33.56
2018-07-24T08:56:31.073Z,34.03
2018-07-24T08:59:03.075Z,34.32
2018-07-24T09:01:35.079Z,34.63
2018-07-24T09:04:07.126Z,33.88
2018-07-24T09:06:39.069Z,34.21
2018-07-24T09:09:12.079Z,34.23
2018-07-24T09:11:44.059Z,33.55
2018-07-24T09:14:16.050Z,33.89
2018-07-24T09:16:48.070Z,34.74
2018-07-24T09:19:20.098Z,33.61
2018-07-24T09:21:52.079Z,34.15
2018-07-24T09:24:24.089Z,33.96
2018-07-24T09:26:56.100Z,33.82
2018-07-24T09:29:28.059Z,34.96
2018-07-24T09:32:00.084Z,34.04
2018-07-24T09:34:32.242Z,35.02
2018-07-24T09:37:04.322Z,35.89
2018-07-24T09:39:36.320Z,34.77
2018-07-24T09:42:08.331Z,34.60
2018-07-24T09:44:40.294Z,34.36
2018-07-24T09:47:12.326Z,34.67
2018-07-24T09:49:44.328Z,33.75
2018-07-24T09:52:16.395Z,33.03
2018-07-24T09:54:48.364Z,33.47
2018-07-24T09:57:20.357Z,33.79
2018-07-24T09:59:52.373Z,34.09
2018-07-24T10:02:24.375Z,34.32
2018-07-24T10:04:56.380Z,33.60
2018-07-24T10:07:28.368Z,34.79
2018-07-24T10:10:00.327Z,34.79
2018-07-24T10:12:32.310Z,34.94
2018-07-24T10:15:04.399Z,34.67
2018-07-24T10:17:36.363Z,34.43
2018-07-24T10:20:08.366Z,34.28
2018-07-24T10:22:40.365Z,34.53
2018-07-24T10:25:12.707Z,34.78
2018-07-24T10:27:44.680Z,35.53
2018-07-24T10:30:16.724Z,35.13
2018-07-24T10:32:48.630Z,35.07
2018-07-24T10:35:20.631Z,35.33
2018-07-24T10:37:52.644Z,35.85
2018-07-24T10:40:24.614Z,35.50
2018-07-24T10:42:56.661Z,34.89
2018-07-24T10:45:28.563Z,34.56
2018-07-24T10:51:09.504Z,34.61
2018-07-24T10:53:41.576Z,35.45
2018-07-24T10:56:13.702Z,36.63
2018-07-24T10:58:45.767Z,36.52
2018-07-24T11:01:17.934Z,36.99
2018-07-24T11:03:50.117Z,36.87
2018-07-24T11:06:22.310Z,37.08
2018-07-24T11:08:54.668Z,36.92
2018-07-24T11:11:26.900Z,37.27
2018-07-24T11:13:59.136Z,36.95
2018-07-24T11:16:31.449Z,35.98
2018-07-24T11:19:03.663Z,35.67
2018-07-24T11:21:35.699Z,36.22
2018-07-24T11:24:07.809Z,35.41
2018-07-24T11:26:39.858Z,36.00
2018-07-24T11:29:11.931Z,36.59
2018-07-24T11:31:43.988Z,36.18
2018-07-24T11:34:16.015Z,35.72
2018-07-24T11:36:48.110Z,34.96
2018-07-24T11:39:20.262Z,33.34
2018-07-24T11:41:52.302Z,33.02
2018-07-24T11:44:24.384Z,33.07
2018-07-24T11:47:03.458Z,33.16
2018-07-24T11:49:36.560Z,33.94
2018-07-24T11:52:08.615Z,34.20
2018-07-24T11:54:40.775Z,34.89
2018-07-24T11:57:12.972Z,34.58
2018-07-24T11:59:45.015Z,34.00
2018-07-24T12:02:17.128Z,33.96
2018-07-24T12:04:49.235Z,34.59
2018-07-24T12:07:21.247Z,35.09
2018-07-24T12:09:53.433Z,34.71
2018-07-24T12:12:25.531Z,34.99
2018-07-24T12:14:57.692Z,34.45
2018-07-24T12:17:29.640Z,33.15
2018-07-24T12:20:01.681Z,32.39
2018-07-24T12:22:33.723Z,33.95
2018-07-24T12:25:05.750Z,35.20
2018-07-24T12:27:37.771Z,35.31
2018-07-24T12:30:09.879Z,35.88
2018-07-24T12:32:41.908Z,35.55
2018-07-24T12:35:14.078Z,36.70
2018-07-24T12:37:46.135Z,38.52
2018-07-24T12:40:18.225Z,39.78
2018-07-24T12:42:50.286Z,39.41
2018-07-24T12:45:22.354Z,39.20
2018-07-24T12:47:54.390Z,37.02
2018-07-24T12:50:26.509Z,37.88
2018-07-24T12:52:58.576Z,38.98
2018-07-24T12:55:30.843Z,39.85
2018-07-24T12:58:03.033Z,40.62
2018-07-24T13:00:35.027Z,40.95
2018-07-24T13:03:07.090Z,39.99
2018-07-24T13:05:39.159Z,40.14
2018-07-24T13:08:11.233Z,41.04
2018-07-24T13:10:43.390Z,40.96
2018-07-24T13:13:15.399Z,41.53
2018-07-24T13:15:47.407Z,40.99
2018-07-24T13:18:19.455Z,41.14
2018-07-24T13:20:51.559Z,41.02
2018-07-24T13:23:23.655Z,41.30
2018-07-24T13:25:55.741Z,41.42
2018-07-24T13:28:27.835Z,40.14
2018-07-24T13:30:59.934Z,39.83
2018-07-24T13:33:32.001Z,41.07
2018-07-24T13:36:04.039Z,42.25
2018-07-24T13:38:36.086Z,42.72
2018-07-24T13:41:08.194Z,41.70
2018-07-24T13:43:40.300Z,42.81
2018-07-24T13:46:12.489Z,40.16
2018-07-24T13:48:44.560Z,41.11
2018-07-24T13:51:16.685Z,41.92
2018-07-24T13:53:48.747Z,39.39
2018-07-24T13:56:20.831Z,39.24
2018-07-24T13:58:52.993Z,40.72
2018-07-24T14:01:25.053Z,39.97
2018-07-24T14:03:57.112Z,39.86
2018-07-24T14:06:29.179Z,41.06
2018-07-24T14:09:02.135Z,39.83
2018-07-24T14:11:34.199Z,39.24
2018-07-24T14:14:06.373Z,39.92
2018-07-24T14:16:38.460Z,40.17
2018-07-24T14:19:10.503Z,39.19
2018-07-24T14:21:42.680Z,40.37
2018-07-24T14:24:14.648Z,39.96
2018-07-24T14:26:46.751Z,39.84
2018-07-24T14:29:18.816Z,40.17
2018-07-24T14:31:50.888Z,39.46
2018-07-24T14:34:22.966Z,39.82
2018-07-24T14:36:55.055Z,38.21
2018-07-24T14:39:27.105Z,38.97
2018-07-24T14:41:59.194Z,38.40
2018-07-24T14:44:31.231Z,37.32
2018-07-24T14:47:03.292Z,37.51
2018-07-24T14:49:35.323Z,37.83
2018-07-24T14:52:07.429Z,36.71
2018-07-24T14:54:39.482Z,37.08
2018-07-24T14:57:11.561Z,38.87
2018-07-24T14:59:43.627Z,37.59
2018-07-24T15:02:15.678Z,37.85
2018-07-24T15:04:47.705Z,37.81
2018-07-24T15:07:19.782Z,37.24
2018-07-24T15:09:51.904Z,37.40
2018-07-24T15:12:23.944Z,38.86
2018-07-24T15:14:56.013Z,39.89
2018-07-24T15:17:28.075Z,40.66
2018-07-24T15:20:00.217Z,40.18
2018-07-24T15:22:32.286Z,37.49
2018-07-24T15:25:04.435Z,37.05
2018-07-24T15:27:36.516Z,35.80
2018-07-24T15:30:08.662Z,34.66
2018-07-24T15:32:40.777Z,33.99
2018-07-24T15:35:12.863Z,35.66
2018-07-24T15:37:44.950Z,37.34
2018-07-24T15:40:17.067Z,38.73
2018-07-24T15:42:49.201Z,39.26
2018-07-24T15:45:21.279Z,39.60
2018-07-24T15:47:53.307Z,37.99
2018-07-24T15:50:25.359Z,36.27
2018-07-24T15:52:57.439Z,36.55
2018-07-24T15:55:29.475Z,36.28
2018-07-24T15:58:01.660Z,36.35
2018-07-24T16:00:33.708Z,37.45
2018-07-24T16:03:06.078Z,37.29
2018-07-24T16:05:38.131Z,36.31
2018-07-24T16:08:10.243Z,36.93
2018-07-24T16:10:42.318Z,36.28
2018-07-24T16:13:14.383Z,37.39
2018-07-24T16:15:46.492Z,38.09
2018-07-24T16:18:18.501Z,39.06
2018-07-24T16:20:50.528Z,37.78
2018-07-24T16:23:22.632Z,37.90
2018-07-24T16:25:54.674Z,37.91
2018-07-24T16:28:26.764Z,37.50
2018-07-24T16:30:58.882Z,35.70
2018-07-24T16:33:30.909Z,33.79
2018-07-24T16:36:02.936Z,33.86
2018-07-24T16:38:35.227Z,34.23
2018-07-24T16:41:07.238Z,33.36
2018-07-24T16:43:39.283Z,33.75
2018-07-24T16:46:11.333Z,34.01
2018-07-24T16:48:43.367Z,33.26
2018-07-24T16:51:15.407Z,33.38
2018-07-24T16:53:47.475Z,33.35
2018-07-24T16:56:19.607Z,33.09
2018-07-24T16:58:51.611Z,33.10
2018-07-24T17:01:23.727Z,32.82
2018-07-24T17:03:55.750Z,32.55
2018-07-24T17:06:27.760Z,32.25
2018-07-24T17:08:59.787Z,32.05
2018-07-24T17:11:31.818Z,31.74
2018-07-24T17:14:03.879Z,31.78
2018-07-24T17:16:36.159Z,31.78
2018-07-24T17:19:08.270Z,31.70
2018-07-24T17:21:40.366Z,31.47
2018-07-24T17:24:12.444Z,31.33
2018-07-24T17:26:44.524Z,31.23
2018-07-24T17:29:16.598Z,31.15
2018-07-24T17:31:48.651Z,31.02
2018-07-24T17:34:20.683Z,30.95
2018-07-24T17:36:52.732Z,30.81
2018-07-24T17:39:24.799Z,30.81
2018-07-24T17:41:56.856Z,30.68
2018-07-24T17:44:29.056Z,30.59
2018-07-24T17:47:01.083Z,30.62
2018-07-24T17:49:33.131Z,30.54
2018-07-24T17:52:05.287Z,30.31
2018-07-24T17:54:37.338Z,30.22
2018-07-24T17:57:09.358Z,30.11
2018-07-24T17:59:41.417Z,30.10
2018-07-24T18:02:13.459Z,29.85
2018-07-24T18:04:45.496Z,29.74
2018-07-24T18:07:17.575Z,29.63
2018-07-24T18:09:49.631Z,29.42
2018-07-24T18:12:21.777Z,29.36
2018-07-24T18:14:54.019Z,29.28
2018-07-24T18:17:26.071Z,29.13
2018-07-24T18:19:58.139Z,28.98
2018-07-24T18:22:30.203Z,28.84
2018-07-24T18:25:02.294Z,28.70
2018-07-24T18:27:34.375Z,28.49
2018-07-24T18:30:06.435Z,28.33
2018-07-24T18:32:38.516Z,28.17
2018-07-24T18:35:10.575Z,28.02
2018-07-24T18:37:42.654Z,27.91
2018-07-24T18:40:14.719Z,27.83
2018-07-24T18:42:46.764Z,27.69
2018-07-24T18:45:18.786Z,27.53
2018-07-24T18:47:51.402Z,27.39
2018-07-24T18:50:23.489Z,27.23
2018-07-24T18:52:55.540Z,27.03
2018-07-24T18:55:27.604Z,26.83
2018-07-24T18:57:59.651Z,26.62
2018-07-24T19:00:31.699Z,26.57
2018-07-24T19:03:03.778Z,26.43
2018-07-24T19:05:35.825Z,26.35
2018-07-24T19:08:07.942Z,26.21
2018-07-24T19:10:40.022Z,26.07
2018-07-24T19:13:12.158Z,25.85
2018-07-24T19:15:44.180Z,25.60
2018-07-24T19:18:16.209Z,25.36
2018-07-24T19:20:48.252Z,25.22
2018-07-24T19:23:20.379Z,25.28
2018-07-24T19:25:52.395Z,25.19
2018-07-24T19:28:24.448Z,25.08
2018-07-24T19:30:56.540Z,25.02
2018-07-24T19:33:28.992Z,24.96
2018-07-24T19:36:01.037Z,24.79
2018-07-24T19:38:33.105Z,24.58
2018-07-24T19:41:05.280Z,24.48
2018-07-24T19:43:37.363Z,24.52
2018-07-24T19:46:09.402Z,24.64
2018-07-24T19:48:41.443Z,24.61
2018-07-24T19:51:13.467Z,24.49
2018-07-24T19:53:45.535Z,24.30
2018-07-24T19:56:17.605Z,24.17
2018-07-24T19:58:49.652Z,24.13
2018-07-24T20:01:21.739Z,23.87
2018-07-24T20:03:53.807Z,23.65
2018-07-24T20:06:25.815Z,23.42
2018-07-24T20:08:57.855Z,23.28
2018-07-24T20:11:29.875Z,23.21
2018-07-24T20:14:01.895Z,23.19
2018-07-24T20:16:33.927Z,23.05
2018-07-24T20:19:05.953Z,22.95
2018-07-24T20:21:37.983Z,22.85
2018-07-24T20:24:10.059Z,22.74
2018-07-24T20:26:42.119Z,22.62
2018-07-24T20:29:14.147Z,22.58
2018-07-24T20:31:46.379Z,22.54
2018-07-24T20:34:18.484Z,22.53
2018-07-24T20:36:50.832Z,22.78
2018-07-24T20:39:22.896Z,22.82
2018-07-24T20:41:54.924Z,22.66
2018-07-24T20:44:26.939Z,22.50
2018-07-24T20:46:58.968Z,22.36
2018-07-24T20:49:30.996Z,22.22
2018-07-24T20:52:03.021Z,22.07
2018-07-24T20:54:35.061Z,21.96
2018-07-24T20:57:07.166Z,21.85
2018-07-24T20:59:39.228Z,21.78
2018-07-24T21:02:11.260Z,21.76
2018-07-24T21:04:44.024Z,21.82
2018-07-24T21:07:16.049Z,21.72
2018-07-24T21:09:48.098Z,21.78
2018-07-24T21:12:20.176Z,21.82
2018-07-24T21:14:52.221Z,21.73
2018-07-24T21:17:24.290Z,21.59
2018-07-24T21:19:56.323Z,21.46
2018-07-24T21:22:28.429Z,21.36
2018-07-24T21:25:00.509Z,21.49
2018-07-24T21:27:32.868Z,21.53
2018-07-24T21:30:05.685Z,21.61
2018-07-24T21:32:37.699Z,21.64
2018-07-24T21:35:09.756Z,21.45
2018-07-24T21:37:41.803Z,21.29
2018-07-24T21:40:13.860Z,21.12
2018-07-24T21:42:45.957Z,20.93
2018-07-24T21:45:17.918Z,20.76
2018-07-24T21:47:49.958Z,20.60
2018-07-24T21:50:21.975Z,20.54
2018-07-24T21:52:53.987Z,20.52
2018-07-24T21:55:26.001Z,20.65
2018-07-24T21:57:58.023Z,20.59
2018-07-24T22:00:34.621Z,20.57
2018-07-24T22:03:07.975Z,20.55
2018-07-24T22:05:39.984Z,20.44
2018-07-24T22:08:12.036Z,20.34
2018-07-24T22:10:44.098Z,20.28
2018-07-24T22:13:16.139Z,20.30
2018-07-24T22:15:48.255Z,20.30
2018-07-24T22:18:20.338Z,20.19
2018-07-24T22:20:52.372Z,20.16
2018-07-24T22:23:24.420Z,20.13
2018-07-24T22:25:56.482Z,20.05
2018-07-24T22:28:28.512Z,19.96
2018-07-24T22:31:00.638Z,19.85
2018-07-24T22:33:32.687Z,19.75
2018-07-24T22:36:04.781Z,19.65
2018-07-24T22:38:36.824Z,19.69
2018-07-24T22:41:08.910Z,19.58
2018-07-24T22:43:40.923Z,19.44
2018-07-24T22:46:12.987Z,19.40
2018-07-24T22:48:45.004Z,19.50
2018-07-24T22:51:17.059Z,19.49
2018-07-24T22:53:49.145Z,19.48
2018-07-24T22:56:21.213Z,19.42
2018-07-24T22:58:53.245Z,19.30
2018-07-24T23:01:25.295Z,19.19
2018-07-24T23:03:57.345Z,19.14
2018-07-24T23:06:29.439Z,19.04
2018-07-24T23:09:01.512Z,19.06
2018-07-24T23:11:33.571Z,19.07
2018-07-24T23:14:05.639Z,19.21
2018-07-24T23:16:37.660Z,19.21
2018-07-24T23:19:09.653Z,19.25
2018-07-24T23:21:41.687Z,19.26
2018-07-24T23:24:13.689Z,19.10
2018-07-24T23:26:45.748Z,19.04
2018-07-24T23:29:17.773Z,19.02
2018-07-24T23:31:49.942Z,19.09
2018-07-24T23:34:22.004Z,19.04
2018-07-24T23:36:54.025Z,19.18
2018-07-24T23:39:26.054Z,19.22
2018-07-24T23:41:58.105Z,19.15
2018-07-24T23:44:30.183Z,19.22
2018-07-24T23:47:02.222Z,19.12
2018-07-24T23:49:34.273Z,19.00
2018-07-24T23:52:06.412Z,18.81
2018-07-24T23:54:38.463Z,18.94
2018-07-24T23:57:10.540Z,19.00
2018-07-24T23:59:42.607Z,18.94
